Time;durP1;ratioP1;P1;durP2;ratioP2;P2;SDS_P1;SDS_P2;PMS_P1;PMS_P2;Temp;Humidity;BMP_temperature;BMP_pressure;BME280_temperature;BME280_humidity;BME280_pressure;Samples;Min_cycle;Max_cycle;Signal;HPM_P1;HPM_P2
2021/10/22 00:00:21;;;;;;;3.78;1.70;;;7.00;99.90;;;;;;5053637;28;20470;-71
2021/10/22 00:02:47;;;;;;;2.15;1.65;;;7.00;99.90;;;;;;5053240;28;20082;-72
2021/10/22 00:05:13;;;;;;;3.22;2.00;;;6.90;99.90;;;;;;5053040;28;20096;-72
2021/10/22 00:07:39;;;;;;;6.13;1.83;;;6.90;99.90;;;;;;5051853;28;20048;-72
2021/10/22 00:10:06;;;;;;;3.63;1.80;;;6.80;99.90;;;;;;5052735;28;20031;-72
2021/10/22 00:12:32;;;;;;;6.07;1.73;;;6.70;99.90;;;;;;5052014;28;20378;-66
2021/10/22 00:14:58;;;;;;;3.63;1.77;;;6.70;99.90;;;;;;5052557;28;20025;-70
2021/10/22 00:17:23;;;;;;;4.43;1.70;;;6.60;99.90;;;;;;5052553;28;20056;-70
2021/10/22 00:19:50;;;;;;;3.50;2.25;;;6.50;99.90;;;;;;5051705;28;20024;-70
2021/10/22 00:22:16;;;;;;;3.75;1.70;;;6.40;99.90;;;;;;5052647;28;20032;-70
2021/10/22 00:24:41;;;;;;;5.78;1.98;;;6.40;99.90;;;;;;5051650;28;20021;-69
2021/10/22 00:27:07;;;;;;;4.20;2.30;;;6.30;99.90;;;;;;5052599;28;20382;-70
2021/10/22 00:29:33;;;;;;;6.00;2.00;;;6.30;99.90;;;;;;5051784;28;20370;-67
2021/10/22 00:31:59;;;;;;;7.45;3.33;;;6.20;99.90;;;;;;5052353;28;20029;-70
2021/10/22 00:34:25;;;;;;;3.78;2.00;;;6.30;99.90;;;;;;5052614;28;20032;-70
2021/10/22 00:36:51;;;;;;;5.07;2.20;;;6.20;99.90;;;;;;5051256;28;20603;-70
2021/10/22 00:39:17;;;;;;;3.67;2.13;;;6.20;99.90;;;;;;5052346;28;20021;-70
2021/10/22 00:41:43;;;;;;;6.53;2.45;;;6.20;99.90;;;;;;5051509;28;20170;-69
2021/10/22 00:44:09;;;;;;;5.72;2.40;;;6.20;99.90;;;;;;5052094;28;20041;-69
2021/10/22 00:46:37;;;;;;;5.30;2.15;;;6.20;99.90;;;;;;5051055;28;20417;-69
2021/10/22 00:49:11;;;;;;;4.30;1.80;;;6.20;99.90;;;;;;5052071;28;20040;-70
2021/10/22 00:51:37;;;;;;;3.17;1.90;;;6.30;99.90;;;;;;5051114;28;20040;-69
2021/10/22 00:54:08;;;;;;;6.45;2.13;;;6.30;99.90;;;;;;5056170;28;20150;-70
2021/10/22 00:56:34;;;;;;;4.63;1.90;;;6.30;99.90;;;;;;5059304;28;20461;-67
2021/10/22 00:59:02;;;;;;;4.20;1.85;;;6.40;99.90;;;;;;5032847;28;20047;-70
2021/10/22 01:01:27;;;;;;;8.98;1.88;;;6.40;99.90;;;;;;5032003;28;20118;-69
2021/10/22 01:03:53;;;;;;;6.43;1.67;;;6.40;99.90;;;;;;5031134;28;20283;-69
2021/10/22 01:06:19;;;;;;;3.70;1.10;;;6.40;99.90;;;;;;5032826;28;20028;-69
2021/10/22 01:08:44;;;;;;;6.03;1.30;;;6.40;99.90;;;;;;5031103;28;20100;-69
2021/10/22 01:11:10;;;;;;;7.05;1.23;;;6.40;99.90;;;;;;5031808;28;20037;-70
2021/10/22 01:13:37;;;;;;;4.00;1.10;;;6.40;99.90;;;;;;5036359;28;20033;-68
2021/10/22 01:16:03;;;;;;;3.80;1.20;;;6.40;99.90;;;;;;5051543;28;20108;-69
2021/10/22 01:18:29;;;;;;;7.35;1.10;;;6.40;99.90;;;;;;5050795;28;20059;-69
2021/10/22 01:21:02;;;;;;;4.75;1.10;;;6.50;99.90;;;;;;5044459;28;20033;-69
2021/10/22 01:23:27;;;;;;;5.43;1.58;;;6.50;99.90;;;;;;5051735;28;20027;-70
2021/10/22 01:25:53;;;;;;;7.93;1.52;;;6.50;99.90;;;;;;5050789;28;20587;-70
2021/10/22 01:28:20;;;;;;;5.70;1.35;;;6.60;99.90;;;;;;5051649;28;20029;-69
2021/10/22 01:30:48;;;;;;;5.10;1.23;;;6.60;99.90;;;;;;5050594;28;20032;-69
2021/10/22 01:33:17;;;;;;;2.83;1.00;;;6.60;99.90;;;;;;5051738;28;20086;-69
2021/10/22 01:35:44;;;;;;;6.63;2.23;;;6.50;99.90;;;;;;5050795;28;20036;-69
2021/10/22 01:38:11;;;;;;;6.75;1.52;;;6.50;99.90;;;;;;5051280;28;20129;-70
2021/10/22 01:40:37;;;;;;;11.32;1.80;;;6.50;99.90;;;;;;5050467;28;20108;-69
2021/10/22 01:43:02;;;;;;;8.10;1.60;;;6.50;99.90;;;;;;5051367;28;20183;-70
2021/10/22 01:45:28;;;;;;;7.00;1.40;;;6.50;99.90;;;;;;5050784;28;20465;-68
2021/10/22 01:47:54;;;;;;;13.05;1.73;;;6.60;99.90;;;;;;5049318;28;20036;-69
2021/10/22 01:50:19;;;;;;;6.30;1.50;;;6.60;99.90;;;;;;5050151;28;20367;-69
2021/10/22 01:52:46;;;;;;;4.65;1.25;;;6.60;99.90;;;;;;5049034;28;20096;-69
2021/10/22 01:55:12;;;;;;;10.30;1.50;;;6.60;99.90;;;;;;5047378;28;20032;-69
2021/10/22 01:57:37;;;;;;;5.13;1.50;;;6.60;99.90;;;;;;5049255;28;20462;-69
2021/10/22 02:00:04;;;;;;;6.82;1.80;;;6.50;99.90;;;;;;5049598;28;20028;-69
2021/10/22 02:02:30;;;;;;;4.90;1.30;;;6.50;99.90;;;;;;5049819;28;20025;-69
2021/10/22 02:04:56;;;;;;;5.72;1.27;;;6.50;99.90;;;;;;5049068;28;20024;-69
2021/10/22 02:07:21;;;;;;;5.97;1.40;;;6.50;99.90;;;;;;5050562;28;20029;-69
2021/10/22 02:09:47;;;;;;;6.47;1.45;;;6.40;99.90;;;;;;5052535;28;20104;-69
2021/10/22 02:12:13;;;;;;;7.13;1.45;;;6.40;99.90;;;;;;5052843;28;20500;-69
2021/10/22 02:14:38;;;;;;;7.15;1.20;;;6.40;99.90;;;;;;5051760;28;20033;-69
2021/10/22 02:17:04;;;;;;;4.90;1.20;;;6.30;99.90;;;;;;5053476;28;20025;-69
2021/10/22 02:19:30;;;;;;;4.75;1.13;;;6.20;99.90;;;;;;5053250;28;20025;-69
2021/10/22 02:21:55;;;;;;;3.88;1.55;;;6.20;99.90;;;;;;5052051;28;20031;-69
2021/10/22 02:24:21;;;;;;;7.82;1.52;;;6.20;99.90;;;;;;5053007;28;20394;-69
2021/10/22 02:26:47;;;;;;;5.57;1.60;;;6.10;99.90;;;;;;5052021;28;20110;-69
2021/10/22 02:29:13;;;;;;;6.07;1.33;;;6.10;99.90;;;;;;5053209;28;20082;-69
2021/10/22 02:31:39;;;;;;;7.97;1.60;;;6.10;99.90;;;;;;5051376;28;20044;-68
2021/10/22 02:34:05;;;;;;;7.25;1.90;;;6.00;99.90;;;;;;5053420;28;20029;-69
2021/10/22 02:36:31;;;;;;;7.47;1.50;;;6.00;99.90;;;;;;5053036;28;20114;-69
2021/10/22 02:38:56;;;;;;;12.38;1.90;;;5.90;99.90;;;;;;5052351;28;20027;-69
2021/10/22 02:41:22;;;;;;;7.35;1.30;;;5.90;99.90;;;;;;5053134;28;20112;-70
2021/10/22 02:43:48;;;;;;;4.95;1.67;;;5.90;99.90;;;;;;5052153;28;20200;-70
2021/10/22 02:46:15;;;;;;;6.68;1.35;;;5.80;99.90;;;;;;5052613;28;20040;-69
2021/10/22 02:48:40;;;;;;;6.38;1.42;;;5.70;99.90;;;;;;5052164;28;20112;-69
2021/10/22 02:51:06;;;;;;;9.20;1.95;;;5.60;99.90;;;;;;5053200;28;20116;-70
2021/10/22 02:53:32;;;;;;;9.45;1.30;;;5.60;99.90;;;;;;5049816;28;20044;-70
2021/10/22 02:55:57;;;;;;;8.30;1.70;;;5.50;99.90;;;;;;5052277;28;20429;-70
2021/10/22 02:58:23;;;;;;;6.18;1.83;;;5.40;99.90;;;;;;5052651;28;20124;-70
2021/10/22 03:00:49;;;;;;;10.77;1.95;;;5.40;99.90;;;;;;5051755;28;20060;-69
2021/10/22 03:03:14;;;;;;;3.83;1.27;;;5.40;99.90;;;;;;5052354;28;20028;-70
2021/10/22 03:05:41;;;;;;;8.23;1.92;;;5.40;99.90;;;;;;5052017;28;20090;-69
2021/10/22 03:08:07;;;;;;;14.38;2.40;;;5.30;99.90;;;;;;5052296;28;20132;-69
2021/10/22 03:10:33;;;;;;;10.63;2.00;;;5.20;99.90;;;;;;5052419;28;20386;-68
2021/10/22 03:12:59;;;;;;;6.07;1.80;;;5.20;99.90;;;;;;5051652;28;20033;-69
2021/10/22 03:15:24;;;;;;;4.75;1.52;;;5.20;99.90;;;;;;5052650;28;20036;-69
2021/10/22 03:17:50;;;;;;;15.07;2.28;;;5.10;99.90;;;;;;5054128;28;20032;-70
2021/10/22 03:20:16;;;;;;;8.05;1.83;;;5.10;99.90;;;;;;5051293;28;20024;-70
2021/10/22 03:22:41;;;;;;;6.63;1.92;;;5.10;99.90;;;;;;5051540;28;20117;-69
2021/10/22 03:25:07;;;;;;;6.78;1.67;;;5.10;99.90;;;;;;5052505;28;20032;-69
2021/10/22 03:27:34;;;;;;;12.15;2.00;;;5.10;99.90;;;;;;5052171;28;20083;-67
2021/10/22 03:30:00;;;;;;;7.10;1.90;;;5.10;99.90;;;;;;5051660;28;20033;-69
2021/10/22 03:32:26;;;;;;;9.73;1.85;;;5.00;99.90;;;;;;5052061;28;20044;-69
2021/10/22 03:34:52;;;;;;;14.43;2.05;;;4.90;99.90;;;;;;5047656;28;20028;-69
2021/10/22 03:37:18;;;;;;;11.38;1.90;;;4.90;99.90;;;;;;5052042;28;20052;-71
2021/10/22 03:39:44;;;;;;;10.50;2.13;;;4.90;99.90;;;;;;5044073;28;20013;-71
2021/10/22 03:42:10;;;;;;;12.18;2.10;;;4.90;99.90;;;;;;5053434;28;20489;-71
2021/10/22 03:44:37;;;;;;;15.77;2.50;;;4.90;99.90;;;;;;5050709;28;20056;-68
2021/10/22 03:47:04;;;;;;;13.82;2.45;;;4.90;99.90;;;;;;5051162;28;20055;-71
2021/10/22 03:49:29;;;;;;;10.88;2.20;;;4.90;99.90;;;;;;5051737;28;20021;-71
2021/10/22 03:51:55;;;;;;;11.70;2.22;;;4.90;99.90;;;;;;5050715;28;20025;-71
2021/10/22 03:54:21;;;;;;;14.23;3.08;;;4.80;99.90;;;;;;5051667;28;20029;-70
2021/10/22 03:56:46;;;;;;;17.33;3.38;;;4.80;99.90;;;;;;5050851;28;20171;-71
2021/10/22 03:59:15;;;;;;;15.02;2.40;;;4.70;99.90;;;;;;5048830;28;20064;-70
2021/10/22 04:01:41;;;;;;;10.52;2.17;;;4.80;99.90;;;;;;5050844;28;20017;-70
2021/10/22 04:04:07;;;;;;;7.50;1.60;;;4.70;99.90;;;;;;5051422;28;20032;-71
2021/10/22 04:06:32;;;;;;;10.32;2.90;;;4.60;99.90;;;;;;5052196;28;20029;-71
2021/10/22 04:08:58;;;;;;;16.70;2.65;;;4.60;99.90;;;;;;5055083;28;20036;-71
2021/10/22 04:11:24;;;;;;;12.20;2.45;;;4.60;99.90;;;;;;5072273;28;20029;-70
2021/10/22 04:13:49;;;;;;;10.05;2.45;;;4.60;99.90;;;;;;5051785;28;20418;-71
2021/10/22 04:16:15;;;;;;;12.20;2.45;;;4.60;99.90;;;;;;5052263;28;20039;-71
2021/10/22 04:18:40;;;;;;;18.88;3.97;;;4.50;99.90;;;;;;5051280;28;20466;-70
2021/10/22 04:21:06;;;;;;;10.95;2.40;;;4.50;99.90;;;;;;5052234;28;20021;-71
2021/10/22 04:23:32;;;;;;;12.52;2.35;;;4.50;99.90;;;;;;5052398;28;20032;-71
2021/10/22 04:25:57;;;;;;;8.40;2.10;;;4.40;99.90;;;;;;5051392;28;20735;-71
2021/10/22 04:28:23;;;;;;;13.00;2.65;;;4.40;99.90;;;;;;5052246;28;20033;-72
2021/10/22 04:30:49;;;;;;;11.05;2.25;;;4.40;99.90;;;;;;5050865;28;20029;-70
2021/10/22 04:33:15;;;;;;;14.13;2.78;;;4.30;99.90;;;;;;5051527;28;20033;-72
2021/10/22 04:35:41;;;;;;;10.98;2.58;;;4.30;99.90;;;;;;5051209;28;20055;-70
2021/10/22 04:40:52;;;;;;;13.85;2.58;;;4.20;99.90;;;;;;5049912;28;20032;-70
2021/10/22 04:43:19;;;;;;;18.67;2.90;;;4.20;99.90;;;;;;5051510;28;20072;-70
2021/10/22 04:45:50;;;;;;;15.13;2.67;;;4.20;99.90;;;;;;5050415;28;20033;-71
2021/10/22 04:48:16;;;;;;;14.40;3.30;;;4.20;99.90;;;;;;5050619;28;20033;-70
2021/10/22 04:50:49;;;;;;;12.23;2.65;;;4.10;99.90;;;;;;5048703;28;20112;-70
2021/10/22 04:53:15;;;;;;;14.88;3.88;;;4.10;99.90;;;;;;5049967;28;20482;-71
2021/10/22 04:55:44;;;;;;;18.70;3.72;;;4.10;99.90;;;;;;5049622;28;20029;-70
2021/10/22 04:58:10;;;;;;;15.88;3.05;;;4.10;99.90;;;;;;5050543;28;20163;-70
2021/10/22 05:00:36;;;;;;;15.15;2.72;;;4.10;99.90;;;;;;5050427;28;20087;-69
2021/10/22 05:03:02;;;;;;;11.38;2.20;;;4.10;99.90;;;;;;5051377;28;20511;-72
2021/10/22 05:05:28;;;;;;;18.52;2.92;;;4.00;99.90;;;;;;5051434;28;20386;-72
2021/10/22 05:07:54;;;;;;;17.30;2.75;;;4.00;99.90;;;;;;5051073;28;20036;-80
2021/10/22 05:10:20;;;;;;;12.57;2.83;;;4.00;99.90;;;;;;5066279;28;20032;-72
2021/10/22 05:12:45;;;;;;;14.70;2.83;;;4.00;99.90;;;;;;5057975;28;20383;-72
2021/10/22 05:15:12;;;;;;;10.23;3.00;;;4.00;99.90;;;;;;5051722;28;20029;-71
2021/10/22 05:17:38;;;;;;;22.77;3.08;;;3.90;99.90;;;;;;5051305;28;20078;-69
2021/10/22 05:20:06;;;;;;;13.77;3.00;;;3.90;99.90;;;;;;5050945;28;20029;-72
2021/10/22 05:22:32;;;;;;;11.13;2.83;;;4.00;99.90;;;;;;5050644;28;20017;-73
2021/10/22 05:24:59;;;;;;;29.63;7.93;;;4.00;99.90;;;;;;5051032;28;20020;-82
2021/10/22 05:27:24;;;;;;;27.10;5.93;;;4.00;99.90;;;;;;5051445;28;20037;-74
2021/10/22 05:29:50;;;;;;;22.08;4.03;;;4.00;99.90;;;;;;5050806;28;20040;-74
2021/10/22 05:32:16;;;;;;;14.70;3.13;;;4.00;99.90;;;;;;5051681;28;20025;-71
2021/10/22 05:34:41;;;;;;;18.05;3.78;;;4.00;99.90;;;;;;5050117;28;20086;-70
2021/10/22 05:37:07;;;;;;;13.45;3.30;;;4.00;99.90;;;;;;5051545;28;20056;-70
2021/10/22 05:39:33;;;;;;;15.20;2.85;;;4.00;99.90;;;;;;5059939;28;20100;-70
2021/10/22 05:41:58;;;;;;;12.93;2.88;;;3.90;99.90;;;;;;5070972;28;20254;-69
2021/10/22 05:44:24;;;;;;;26.92;3.45;;;3.90;99.90;;;;;;5075158;28;20052;-68
2021/10/22 05:46:53;;;;;;;11.65;3.35;;;3.90;99.90;;;;;;5074321;28;20049;-67
2021/10/22 05:49:19;;;;;;;22.13;3.17;;;3.90;99.90;;;;;;5065432;28;20044;-69
2021/10/22 05:51:45;;;;;;;13.40;3.17;;;3.90;99.90;;;;;;5054379;28;20025;-67
2021/10/22 05:54:11;;;;;;;10.63;2.67;;;3.90;99.90;;;;;;5055733;28;20352;-74
2021/10/22 05:56:37;;;;;;;23.08;3.40;;;3.90;99.90;;;;;;5054937;28;20039;-67
2021/10/22 05:59:03;;;;;;;10.65;2.80;;;3.80;99.90;;;;;;5054199;28;20359;-67
2021/10/22 06:01:29;;;;;;;19.75;3.30;;;3.80;99.90;;;;;;5054500;28;20466;-67
2021/10/22 06:03:55;;;;;;;19.52;2.83;;;3.80;99.90;;;;;;5054247;28;20029;-67
2021/10/22 06:06:21;;;;;;;17.35;3.17;;;3.80;99.90;;;;;;5054403;28;20029;-67
2021/10/22 06:08:47;;;;;;;17.85;2.83;;;3.80;99.90;;;;;;5055097;28;20031;-67
2021/10/22 06:11:13;;;;;;;14.63;2.70;;;3.90;99.90;;;;;;5063867;28;20025;-68
2021/10/22 06:13:40;;;;;;;17.35;2.40;;;3.90;99.90;;;;;;5053443;28;20337;-67
2021/10/22 06:16:06;;;;;;;28.35;3.35;;;3.90;99.90;;;;;;5053536;28;20029;-68
2021/10/22 06:18:34;;;;;;;21.92;2.63;;;3.90;99.90;;;;;;5054319;28;20040;-70
2021/10/22 06:21:09;;;;;;;20.67;2.75;;;4.00;99.90;;;;;;5053771;28;20256;-68
2021/10/22 06:26:19;;;;;;;19.40;2.60;;;4.20;99.90;;;;;;5054349;28;20028;-69
2021/10/22 06:28:44;;;;;;;13.93;2.35;;;4.30;99.90;;;;;;5053237;28;20033;-70
2021/10/22 06:31:14;;;;;;;15.40;3.17;;;4.30;99.90;;;;;;5054377;28;20037;-68
2021/10/22 06:33:40;;;;;;;21.05;2.55;;;4.40;99.90;;;;;;5034500;28;20100;-67
2021/10/22 06:36:09;;;;;;;14.52;2.33;;;4.40;99.90;;;;;;5033965;28;20029;-72
2021/10/22 06:38:35;;;;;;;12.38;2.40;;;4.40;99.90;;;;;;5053650;28;20037;-78
2021/10/22 06:41:02;;;;;;;15.63;3.20;;;4.40;99.90;;;;;;5073236;28;20281;-69
2021/10/22 06:43:28;;;;;;;14.35;2.75;;;4.40;99.90;;;;;;5054553;28;20084;-69
2021/10/22 06:45:54;;;;;;;15.38;2.58;;;4.40;99.90;;;;;;5053239;28;20065;-70
2021/10/22 06:48:19;;;;;;;12.90;2.67;;;4.50;99.90;;;;;;5054422;28;20203;-70
2021/10/22 06:50:46;;;;;;;18.58;3.63;;;4.50;99.90;;;;;;5052986;28;20021;-69
2021/10/22 06:53:12;;;;;;;22.88;4.00;;;4.50;99.90;;;;;;5053766;28;20039;-69
2021/10/22 06:55:38;;;;;;;16.77;2.80;;;4.50;99.90;;;;;;5054083;28;20024;-70
2021/10/22 06:58:05;;;;;;;20.85;3.83;;;4.60;99.90;;;;;;5052845;28;20095;-70
2021/10/22 07:00:32;;;;;;;21.75;3.13;;;4.60;99.90;;;;;;5053648;28;20032;-70
2021/10/22 07:02:58;;;;;;;15.20;2.90;;;4.60;99.90;;;;;;5052797;28;20431;-70
2021/10/22 07:05:48;;;;;;;18.92;3.03;;;4.60;99.90;;;;;;5053962;28;20048;-69
2021/10/22 07:08:13;;;;;;;13.52;2.42;;;4.70;99.90;;;;;;5053254;28;20134;-69
2021/10/22 07:10:39;;;;;;;22.02;2.63;;;4.70;99.90;;;;;;5058426;28;20037;-70
2021/10/22 07:13:05;;;;;;;20.50;2.90;;;4.80;99.90;;;;;;5052325;28;20102;-70
2021/10/22 07:15:31;;;;;;;10.57;3.33;;;4.80;99.90;;;;;;5053327;28;20065;-69
2021/10/22 07:17:59;;;;;;;17.40;2.75;;;4.90;99.90;;;;;;5052979;28;20021;-70
2021/10/22 07:20:26;;;;;;;21.88;3.10;;;5.00;99.90;;;;;;5053372;28;20493;-70
2021/10/22 07:22:55;;;;;;;19.23;2.47;;;5.10;99.90;;;;;;5052606;28;20040;-70
2021/10/22 07:25:24;;;;;;;13.02;2.22;;;5.20;99.90;;;;;;5053743;28;20025;-72
2021/10/22 07:27:51;;;;;;;12.63;2.35;;;5.30;99.90;;;;;;5052748;28;20033;-70
2021/10/22 07:30:17;;;;;;;14.68;2.58;;;5.30;99.90;;;;;;5053549;28;20097;-69
2021/10/22 07:32:44;;;;;;;13.00;2.47;;;5.40;99.90;;;;;;5053252;28;20108;-68
2021/10/22 07:35:10;;;;;;;21.00;2.58;;;5.50;99.90;;;;;;5053172;28;20036;-70
2021/10/22 07:37:36;;;;;;;17.70;2.53;;;5.60;99.90;;;;;;5053370;28;20029;-70
2021/10/22 07:40:04;;;;;;;15.75;2.35;;;5.70;99.90;;;;;;5064327;28;20461;-70
2021/10/22 07:42:30;;;;;;;14.18;2.25;;;5.80;99.90;;;;;;5071982;28;20111;-70
2021/10/22 07:44:59;;;;;;;14.95;2.20;;;5.90;99.90;;;;;;5072274;28;20033;-70
2021/10/22 07:47:29;;;;;;;16.70;2.70;;;6.00;99.90;;;;;;5073188;28;20385;-70
2021/10/22 07:49:55;;;;;;;15.70;2.65;;;6.10;99.90;;;;;;5065541;28;20450;-69
2021/10/22 07:52:23;;;;;;;22.52;2.47;;;6.20;99.90;;;;;;5052813;28;20108;-69
2021/10/22 07:54:50;;;;;;;19.20;3.20;;;6.20;99.90;;;;;;5052202;28;20024;-70
2021/10/22 07:57:16;;;;;;;17.15;2.45;;;6.40;99.90;;;;;;5052680;28;20196;-70
2021/10/22 07:59:42;;;;;;;14.18;2.63;;;6.40;99.90;;;;;;5052920;28;20040;-68
2021/10/22 08:02:14;;;;;;;11.57;2.30;;;6.50;99.90;;;;;;5051885;28;20044;-70
2021/10/22 08:04:44;;;;;;;8.40;2.30;;;6.60;99.90;;;;;;5052136;28;20029;-70
2021/10/22 08:07:13;;;;;;;13.60;2.50;;;6.70;99.90;;;;;;5051688;28;20044;-70
2021/10/22 08:09:42;;;;;;;12.10;2.20;;;6.80;99.90;;;;;;5060304;28;20040;-69
2021/10/22 08:12:08;;;;;;;20.80;2.63;;;6.90;99.90;;;;;;5051622;28;20025;-69
2021/10/22 08:14:34;;;;;;;8.32;1.65;;;7.00;99.90;;;;;;5051690;28;20063;-70
2021/10/22 08:17:00;;;;;;;13.45;2.83;;;7.00;99.90;;;;;;5051400;28;20040;-70
2021/10/22 08:19:27;;;;;;;14.82;2.47;;;7.20;99.90;;;;;;5052210;28;20040;-70
2021/10/22 08:24:37;;;;;;;17.20;1.90;;;7.30;99.90;;;;;;5052178;28;20036;-70
2021/10/22 08:27:03;;;;;;;12.35;2.20;;;7.50;99.90;;;;;;5050989;28;20124;-70
2021/10/22 08:29:28;;;;;;;8.55;1.50;;;7.60;99.90;;;;;;5052113;28;20029;-70
2021/10/22 08:31:54;;;;;;;17.08;2.55;;;7.70;99.90;;;;;;5050965;28;20036;-70
2021/10/22 08:34:20;;;;;;;10.35;2.10;;;7.80;99.90;;;;;;5051680;28;20474;-69
2021/10/22 08:36:46;;;;;;;7.00;1.67;;;7.90;99.90;;;;;;5051096;28;20037;-68
2021/10/22 08:39:12;;;;;;;13.85;2.00;;;8.00;99.90;;;;;;5053352;28;20028;-70
2021/10/22 08:41:39;;;;;;;13.88;2.08;;;8.10;99.90;;;;;;5052000;28;20036;-71
2021/10/22 08:44:07;;;;;;;14.43;2.13;;;8.30;99.90;;;;;;5050319;28;20737;-69
2021/10/22 08:46:33;;;;;;;16.60;2.00;;;8.30;99.90;;;;;;5051212;28;20053;-70
2021/10/22 08:49:02;;;;;;;14.32;1.98;;;8.40;99.90;;;;;;5050655;28;20466;-70
2021/10/22 08:51:28;;;;;;;12.05;1.48;;;8.40;99.90;;;;;;5051500;28;20036;-70
2021/10/22 08:53:54;;;;;;;10.05;2.10;;;8.40;99.90;;;;;;5050125;28;20024;-69
2021/10/22 08:56:20;;;;;;;12.30;1.80;;;8.40;99.90;;;;;;5051482;28;20025;-70
2021/10/22 08:58:46;;;;;;;15.73;1.88;;;8.40;99.90;;;;;;5051340;28;20017;-67
2021/10/22 09:01:13;;;;;;;11.00;2.25;;;8.40;99.90;;;;;;5051111;28;20025;-70
2021/10/22 09:03:40;;;;;;;16.13;2.13;;;8.40;99.90;;;;;;5051200;28;20025;-70
2021/10/22 09:06:13;;;;;;;8.32;1.63;;;8.40;99.90;;;;;;5050616;28;20139;-69
2021/10/22 09:08:44;;;;;;;13.60;1.92;;;8.50;99.90;;;;;;5052263;28;20095;-70
2021/10/22 09:11:23;;;;;;;19.98;2.40;;;8.50;99.90;;;;;;5068399;28;20111;-70
2021/10/22 09:14:15;;;;;;;13.68;3.47;;;8.50;99.90;;;;;;5050356;28;20561;-67
2021/10/22 09:16:42;;;;;;;9.27;1.73;;;8.60;99.90;;;;;;5051004;28;20490;-71
2021/10/22 09:19:08;;;;;;;11.77;2.42;;;8.80;99.90;;;;;;5050613;28;20662;-70
2021/10/22 09:21:34;;;;;;;14.60;2.08;;;8.80;99.90;;;;;;5051765;28;20029;-69
2021/10/22 09:24:18;;;;;;;14.07;2.45;;;8.90;99.90;;;;;;5062046;28;20051;-70
2021/10/22 09:26:59;;;;;;;13.45;2.17;;;8.90;99.90;;;;;;5050915;28;20033;-70
2021/10/22 09:29:27;;;;;;;12.25;2.13;;;8.90;99.90;;;;;;5051297;28;20071;-70
2021/10/22 09:31:56;;;;;;;14.25;2.05;;;9.00;99.90;;;;;;5050852;28;20037;-70
2021/10/22 09:34:36;;;;;;;11.98;2.15;;;9.20;99.90;;;;;;5051503;28;20087;-76
2021/10/22 09:37:12;;;;;;;12.75;1.85;;;9.30;99.90;;;;;;5051564;28;20040;-70
2021/10/22 09:39:38;;;;;;;6.30;1.50;;;9.50;99.90;;;;;;5058991;28;20024;-70
2021/10/22 09:42:14;;;;;;;10.60;1.88;;;9.50;99.90;;;;;;5070614;28;20458;-70
2021/10/22 09:44:43;;;;;;;16.58;1.90;;;9.60;99.80;;;;;;5071527;28;20389;-70
2021/10/22 09:47:08;;;;;;;14.43;1.90;;;9.80;99.20;;;;;;5070575;28;20055;-71
2021/10/22 09:49:44;;;;;;;6.40;1.60;;;9.90;98.00;;;;;;5071386;28;20428;-70
2021/10/22 09:52:18;;;;;;;10.43;1.63;;;9.90;98.30;;;;;;5070617;28;20160;-70
2021/10/22 09:54:46;;;;;;;8.85;1.80;;;9.90;97.10;;;;;;5071203;28;20024;-70
2021/10/22 09:57:15;;;;;;;12.32;1.70;;;10.00;97.70;;;;;;5070602;28;20044;-70
2021/10/22 09:59:41;;;;;;;9.15;1.80;;;10.00;96.50;;;;;;5071324;28;20032;-70
2021/10/22 10:02:09;;;;;;;10.07;1.50;;;10.10;96.90;;;;;;5056897;28;20032;-70
2021/10/22 10:04:36;;;;;;;11.25;2.13;;;10.10;98.20;;;;;;5050827;28;20056;-70
2021/10/22 10:07:04;;;;;;;11.65;1.75;;;10.10;96.60;;;;;;5050024;28;20037;-70
2021/10/22 10:09:29;;;;;;;11.13;1.50;;;10.20;93.30;;;;;;5058630;28;20029;-70
2021/10/22 10:11:57;;;;;;;8.32;1.60;;;10.20;92.70;;;;;;5049504;28;20075;-70
2021/10/22 10:14:26;;;;;;;12.50;1.40;;;10.30;89.70;;;;;;5051063;28;20037;-70
2021/10/22 10:16:53;;;;;;;8.68;1.33;;;10.20;85.20;;;;;;5049203;28;20037;-69
2021/10/22 10:19:33;;;;;;;6.28;1.27;;;10.20;88.50;;;;;;5051135;28;20033;-70
2021/10/22 10:22:03;;;;;;;10.38;1.95;;;10.20;84.60;;;;;;5049597;28;20437;-70
2021/10/22 10:24:47;;;;;;;9.32;1.83;;;10.30;82.80;;;;;;5050004;28;20425;-70
2021/10/22 10:27:18;;;;;;;5.10;1.05;;;10.30;82.20;;;;;;5050067;28;20033;-70
2021/10/22 10:29:52;;;;;;;7.60;1.17;;;10.50;80.30;;;;;;5053813;28;20082;-69
2021/10/22 10:32:20;;;;;;;9.52;1.60;;;10.50;78.30;;;;;;5054537;28;20127;-70
2021/10/22 10:34:53;;;;;;;5.20;1.10;;;10.50;76.90;;;;;;5054625;28;20037;-70
2021/10/22 10:37:36;;;;;;;9.48;1.30;;;10.50;76.10;;;;;;5053918;28;20116;-70
2021/10/22 10:40:05;;;;;;;7.47;1.48;;;10.50;76.70;;;;;;5065731;28;20416;-70
2021/10/22 10:42:32;;;;;;;4.70;1.10;;;10.60;77.30;;;;;;5058592;28;20036;-70
2021/10/22 10:45:14;;;;;;;2.88;0.90;;;10.60;76.90;;;;;;5053168;28;20064;-72
2021/10/22 10:47:42;;;;;;;5.93;1.33;;;10.60;76.00;;;;;;5054024;28;20223;-71
2021/10/22 10:50:09;;;;;;;7.15;1.20;;;10.60;74.30;;;;;;5053548;28;20052;-71
2021/10/22 10:52:37;;;;;;;4.82;1.00;;;10.70;74.80;;;;;;5053969;28;20396;-70
2021/10/22 10:55:40;;;;;;;11.02;1.55;;;10.70;71.70;;;;;;5052521;28;20024;-70
2021/10/22 10:58:09;;;;;;;4.43;1.25;;;10.80;69.70;;;;;;5053223;28;20044;-70
2021/10/22 11:00:43;;;;;;;11.40;1.20;;;10.90;70.70;;;;;;5053604;28;20028;-69
2021/10/22 11:03:19;;;;;;;6.80;1.00;;;10.90;69.40;;;;;;5053312;28;20108;-70
2021/10/22 11:05:49;;;;;;;7.10;1.13;;;10.80;66.40;;;;;;5053781;28;20040;-71
2021/10/22 11:08:15;;;;;;;4.73;1.57;;;10.80;67.20;;;;;;5053490;28;20079;-70
2021/10/22 11:13:49;;;;;;;3.50;0.80;;;10.90;65.30;;;;;;5053289;28;20036;-71
2021/10/22 11:16:25;;;;;;;6.07;1.23;;;10.80;66.90;;;;;;5053337;28;20078;-70
2021/10/22 11:18:52;;;;;;;5.50;1.15;;;10.80;67.90;;;;;;5053142;28;20474;-68
2021/10/22 11:21:19;;;;;;;4.68;1.00;;;10.80;67.00;;;;;;5053292;28;20017;-70
2021/10/22 11:23:45;;;;;;;4.25;0.95;;;10.90;65.90;;;;;;5053351;28;20032;-70
2021/10/22 11:26:19;;;;;;;6.45;1.10;;;10.90;67.30;;;;;;5052874;28;20100;-70
2021/10/22 11:28:55;;;;;;;5.53;1.20;;;10.90;67.20;;;;;;5053493;28;20041;-70
2021/10/22 11:31:42;;;;;;;4.43;1.05;;;11.00;67.60;;;;;;5065183;28;20036;-71
2021/10/22 11:34:13;;;;;;;7.03;1.20;;;11.00;65.00;;;;;;5032876;28;20026;-71
2021/10/22 11:36:40;;;;;;;6.93;1.00;;;11.20;64.00;;;;;;5033699;28;20021;-71
2021/10/22 11:39:21;;;;;;;8.38;1.00;;;11.20;62.70;;;;;;5041365;28;20023;-71
2021/10/22 11:42:03;;;;;;;7.75;1.08;;;11.30;64.40;;;;;;5072757;28;20119;-71
2021/10/22 11:44:29;;;;;;;7.43;1.30;;;11.30;65.20;;;;;;5071824;28;20053;-71
2021/10/22 11:46:55;;;;;;;6.50;0.88;;;11.40;61.80;;;;;;5050895;28;20033;-70
2021/10/22 11:49:26;;;;;;;5.43;0.80;;;11.40;58.40;;;;;;5052741;28;20445;-70
2021/10/22 11:51:57;;;;;;;4.47;1.02;;;11.30;58.90;;;;;;5050512;28;20032;-68
2021/10/22 11:54:29;;;;;;;4.00;0.90;;;11.30;57.90;;;;;;5052917;28;20359;-71
2021/10/22 11:56:55;;;;;;;6.10;1.05;;;11.30;59.40;;;;;;5051824;28;20040;-68
2021/10/22 11:59:21;;;;;;;5.97;1.35;;;11.40;60.20;;;;;;5052676;28;20028;-70
2021/10/22 12:01:46;;;;;;;3.75;0.82;;;11.50;59.10;;;;;;5052723;28;20029;-70
2021/10/22 12:04:26;;;;;;;3.47;1.13;;;11.60;61.00;;;;;;5047897;28;20469;-71
2021/10/22 12:07:08;;;;;;;3.70;1.00;;;11.80;59.40;;;;;;5052585;28;20115;-68
2021/10/22 12:09:37;;;;;;;3.80;0.90;;;11.90;58.90;;;;;;5061066;28;20029;-70
2021/10/22 12:12:11;;;;;;;4.15;1.00;;;12.00;57.90;;;;;;5058845;28;20025;-70
2021/10/22 12:14:41;;;;;;;3.42;0.93;;;12.20;57.70;;;;;;5052735;28;20037;-71
2021/10/22 12:17:10;;;;;;;3.15;0.90;;;12.40;56.80;;;;;;5051720;28;20437;-71
2021/10/22 12:19:39;;;;;;;4.25;1.10;;;12.60;57.10;;;;;;5052678;28;20132;-71
2021/10/22 12:22:04;;;;;;;2.85;0.85;;;12.80;56.70;;;;;;5051519;28;20055;-70
2021/10/22 12:24:42;;;;;;;5.82;0.80;;;13.00;56.60;;;;;;5052317;28;20033;-71
2021/10/22 12:27:09;;;;;;;4.85;1.05;;;13.20;56.30;;;;;;5051249;28;20044;-83
2021/10/22 12:29:56;;;;;;;3.40;0.82;;;13.60;56.10;;;;;;5052091;28;20025;-71
2021/10/22 12:32:29;;;;;;;4.57;1.05;;;14.00;52.30;;;;;;5052417;28;20032;-71
2021/10/22 12:34:55;;;;;;;4.72;1.05;;;14.10;52.60;;;;;;5051624;28;20033;-68
2021/10/22 12:37:35;;;;;;;5.53;1.05;;;14.10;51.90;;;;;;5051743;28;20496;-71
2021/10/22 12:40:15;;;;;;;3.63;1.10;;;14.30;52.60;;;;;;5063385;28;20058;-69
2021/10/22 12:42:41;;;;;;;5.05;1.08;;;14.50;50.40;;;;;;5053756;28;20098;-71
2021/10/22 12:45:15;;;;;;;5.85;1.25;;;14.80;50.80;;;;;;5051361;28;20041;-71
2021/10/22 12:47:42;;;;;;;4.82;1.30;;;15.10;50.90;;;;;;5051499;28;20044;-70
2021/10/22 12:50:08;;;;;;;3.67;0.93;;;15.20;50.50;;;;;;5050939;28;20371;-71
2021/10/22 12:52:34;;;;;;;4.55;1.27;;;15.30;50.40;;;;;;5050998;28;20032;-70
2021/10/22 12:55:00;;;;;;;5.65;0.93;;;15.30;51.40;;;;;;5050809;28;20115;-70
2021/10/22 12:57:26;;;;;;;4.75;1.10;;;15.30;50.40;;;;;;5051295;28;20439;-71
2021/10/22 12:59:53;;;;;;;3.42;1.00;;;15.20;51.00;;;;;;5050527;28;20474;-68
2021/10/22 13:02:27;;;;;;;4.95;1.10;;;15.10;51.30;;;;;;5049329;28;20059;-71
2021/10/22 13:05:18;;;;;;;9.70;2.20;;;14.90;52.10;;;;;;5051137;28;20029;-68